createdAt,value
2023-02-26T00:01:19.405Z,61.87
2023-02-26T00:04:08.717Z,61.96
2023-02-26T00:06:58.606Z,63.12
2023-02-26T00:09:48.110Z,62.51
2023-02-26T00:12:37.588Z,62.35
2023-02-26T00:15:26.923Z,63.07
2023-02-26T00:18:17.465Z,63.18
2023-02-26T00:21:06.812Z,64.30
2023-02-26T00:23:55.369Z,64.17
2023-02-26T00:26:43.871Z,64.14
2023-02-26T00:29:32.812Z,64.37
2023-02-26T00:32:21.801Z,63.98
2023-02-26T00:35:14.869Z,63.74
2023-02-26T00:38:05.685Z,63.64
2023-02-26T00:40:55.611Z,62.93
2023-02-26T00:43:44.618Z,62.87
2023-02-26T00:46:40.601Z,62.90
2023-02-26T00:49:36.870Z,62.79
2023-02-26T00:52:32.552Z,62.89
2023-02-26T00:55:21.107Z,63.16
2023-02-26T00:58:09.690Z,63.19
2023-02-26T01:00:58.184Z,63.20
2023-02-26T01:03:47.172Z,63.22
2023-02-26T01:06:36.932Z,63.94
2023-02-26T01:09:28.242Z,64.00
2023-02-26T01:12:17.869Z,63.66
2023-02-26T01:15:08.285Z,63.62
2023-02-26T01:18:02.559Z,63.73
2023-02-26T01:20:55.737Z,64.27
2023-02-26T01:23:47.699Z,64.39
2023-02-26T01:26:37.835Z,63.98
2023-02-26T01:29:26.765Z,63.81
2023-02-26T01:32:18.734Z,64.48
2023-02-26T01:35:14.709Z,64.05
2023-02-26T01:38:05.956Z,63.82
2023-02-26T01:41:10.018Z,64.28
2023-02-26T01:44:04.628Z,64.60
2023-02-26T01:47:06.210Z,65.07
2023-02-26T01:49:55.203Z,67.31
2023-02-26T01:53:17.933Z,67.84
2023-02-26T01:56:13.886Z,68.25
2023-02-26T01:59:06.030Z,68.74
2023-02-26T02:01:58.045Z,69.74
2023-02-26T02:04:48.229Z,69.94
2023-02-26T02:07:36.717Z,70.76
2023-02-26T02:10:25.222Z,71.01
2023-02-26T02:13:26.873Z,70.99
2023-02-26T02:16:24.172Z,71.91
2023-02-26T02:19:33.172Z,72.53
2023-02-26T02:22:37.243Z,72.68
2023-02-26T02:25:41.596Z,72.36
2023-02-26T02:28:38.660Z,72.40
2023-02-26T02:31:30.953Z,72.90
2023-02-26T02:34:23.384Z,73.72
2023-02-26T02:37:17.364Z,73.72
2023-02-26T02:40:09.028Z,74.11
2023-02-26T02:43:00.753Z,74.60
2023-02-26T02:45:51.754Z,74.81
2023-02-26T02:48:45.098Z,75.51
2023-02-26T02:51:35.508Z,75.83
2023-02-26T02:54:27.536Z,76.33
2023-02-26T02:57:19.468Z,76.64
2023-02-26T03:00:11.357Z,76.51
2023-02-26T03:03:03.808Z,76.13
2023-02-26T03:05:53.650Z,76.69
2023-02-26T03:08:43.250Z,76.85
2023-02-26T03:11:32.180Z,77.70
2023-02-26T03:14:20.826Z,77.68
2023-02-26T03:17:19.267Z,78.30
2023-02-26T03:20:18.354Z,78.34
2023-02-26T03:23:12.845Z,78.13
2023-02-26T03:26:06.385Z,78.39
2023-02-26T03:28:57.350Z,78.53
2023-02-26T03:31:56.148Z,78.78
2023-02-26T03:34:48.072Z,79.65
2023-02-26T03:37:40.581Z,80.12
2023-02-26T03:40:33.523Z,79.98
2023-02-26T03:43:26.184Z,80.25
2023-02-26T03:46:16.808Z,80.33
2023-02-26T03:49:08.347Z,80.48
2023-02-26T03:51:58.325Z,80.95
2023-02-26T03:54:49.824Z,81.01
2023-02-26T03:57:39.882Z,81.73
2023-02-26T04:00:28.779Z,82.17
2023-02-26T04:03:22.169Z,81.61
2023-02-26T04:06:10.619Z,82.04
2023-02-26T04:08:59.105Z,82.50
2023-02-26T04:11:48.310Z,82.75
2023-02-26T04:14:38.521Z,83.05
2023-02-26T04:17:27.065Z,83.26
2023-02-26T04:20:15.793Z,83.77
2023-02-26T04:23:04.233Z,83.66
2023-02-26T04:25:52.920Z,83.62
2023-02-26T04:28:41.766Z,83.40
2023-02-26T04:31:31.786Z,83.14
2023-02-26T04:34:20.458Z,83.23
2023-02-26T04:37:09.001Z,83.59
2023-02-26T04:39:57.477Z,83.88
2023-02-26T04:42:47.489Z,84.50
2023-02-26T04:45:36.081Z,84.59
2023-02-26T04:48:26.316Z,84.52
2023-02-26T04:51:15.614Z,84.11
2023-02-26T04:54:04.169Z,83.83
2023-02-26T04:56:52.610Z,84.02
2023-02-26T04:59:41.115Z,84.66
2023-02-26T05:02:29.582Z,84.38
2023-02-26T05:05:19.463Z,85.08
2023-02-26T05:08:07.971Z,84.80
2023-02-26T05:10:56.475Z,85.71
2023-02-26T05:13:44.953Z,85.92
2023-02-26T05:16:33.550Z,86.04
2023-02-26T05:19:22.309Z,86.57
2023-02-26T05:22:12.376Z,86.37
2023-02-26T05:25:00.844Z,86.81
2023-02-26T05:27:49.972Z,87.82
2023-02-26T05:30:38.529Z,86.85
2023-02-26T05:33:27.296Z,87.26
2023-02-26T05:36:16.096Z,87.49
2023-02-26T05:39:05.996Z,87.20
2023-02-26T05:41:55.456Z,86.90
2023-02-26T05:44:43.942Z,87.75
2023-02-26T05:47:32.564Z,87.61
2023-02-26T05:50:21.246Z,88.09
2023-02-26T05:53:09.851Z,88.17
2023-02-26T05:55:59.845Z,88.20
2023-02-26T05:58:48.364Z,88.63
2023-02-26T06:01:38.216Z,88.54
2023-02-26T06:04:26.758Z,88.16
2023-02-26T06:07:15.331Z,88.24
2023-02-26T06:10:03.971Z,88.23
2023-02-26T06:12:53.780Z,88.18
2023-02-26T06:15:42.299Z,89.13
2023-02-26T06:18:32.213Z,88.99
2023-02-26T06:21:20.724Z,88.90
2023-02-26T06:24:09.455Z,88.98
2023-02-26T06:26:57.939Z,89.16
2023-02-26T06:29:47.908Z,89.45
2023-02-26T06:32:36.498Z,89.28
2023-02-26T06:35:25.083Z,88.66
2023-02-26T06:38:13.849Z,87.91
2023-02-26T06:41:02.381Z,88.70
2023-02-26T06:43:50.840Z,87.91
2023-02-26T06:46:40.677Z,87.34
2023-02-26T06:49:29.137Z,86.92
2023-02-26T06:52:17.595Z,86.42
2023-02-26T06:55:06.783Z,86.61
2023-02-26T06:57:55.489Z,87.02
2023-02-26T07:00:44.000Z,88.61
2023-02-26T07:03:33.898Z,88.49
2023-02-26T07:06:27.679Z,88.11
2023-02-26T07:09:16.757Z,88.08
2023-02-26T07:12:07.254Z,88.26
2023-02-26T07:14:55.772Z,88.10
2023-02-26T07:17:44.559Z,87.59
2023-02-26T07:20:34.356Z,87.42
2023-02-26T07:23:22.881Z,88.10
2023-02-26T07:26:11.474Z,87.90
2023-02-26T07:29:00.038Z,87.78
2023-02-26T07:31:48.702Z,87.87
2023-02-26T07:34:37.311Z,87.79
2023-02-26T07:37:27.406Z,88.17
2023-02-26T07:40:16.232Z,88.01
2023-02-26T07:43:04.760Z,87.92
2023-02-26T07:45:54.672Z,87.75
2023-02-26T07:48:43.570Z,87.73
2023-02-26T07:51:32.651Z,87.53
2023-02-26T07:54:22.472Z,90.37
2023-02-26T07:57:10.910Z,94.85
2023-02-26T07:59:59.385Z,98.20
2023-02-26T08:02:47.834Z,92.21
2023-02-26T08:05:36.290Z,84.07
2023-02-26T08:08:24.794Z,81.19
2023-02-26T08:11:14.695Z,80.24
2023-02-26T08:14:03.352Z,78.22
2023-02-26T08:16:53.152Z,77.07
2023-02-26T08:19:41.642Z,78.83
2023-02-26T08:22:30.176Z,78.77
2023-02-26T08:25:18.989Z,75.64
2023-02-26T08:28:08.867Z,74.58
2023-02-26T08:30:57.593Z,74.33
2023-02-26T08:33:46.429Z,74.54
2023-02-26T08:36:34.906Z,74.11
2023-02-26T08:39:23.391Z,73.71
2023-02-26T08:42:16.508Z,73.17
2023-02-26T08:45:07.605Z,72.75
2023-02-26T08:47:57.426Z,73.62
2023-02-26T08:50:46.043Z,72.43
2023-02-26T08:53:34.515Z,72.71
2023-02-26T08:56:23.500Z,72.65
2023-02-26T08:59:13.422Z,73.20
2023-02-26T09:02:03.363Z,73.32
2023-02-26T09:04:51.901Z,73.03
2023-02-26T09:07:40.458Z,73.18
2023-02-26T09:10:29.322Z,73.44
2023-02-26T09:13:17.854Z,73.19
2023-02-26T09:16:07.440Z,72.96
2023-02-26T09:18:57.415Z,71.80
2023-02-26T09:21:45.898Z,70.82
2023-02-26T09:24:34.404Z,68.50
2023-02-26T09:27:23.098Z,67.81
2023-02-26T09:30:12.811Z,65.53
2023-02-26T09:33:01.273Z,65.09
2023-02-26T09:35:51.401Z,64.95
2023-02-26T09:38:39.976Z,65.54
2023-02-26T09:41:31.547Z,65.09
2023-02-26T09:44:22.119Z,65.25
2023-02-26T09:47:15.238Z,65.83
2023-02-26T09:50:09.828Z,65.71
2023-02-26T09:53:03.210Z,66.29
2023-02-26T09:55:53.789Z,66.88
2023-02-26T09:58:42.976Z,66.98
2023-02-26T10:01:36.004Z,66.98
2023-02-26T10:04:31.798Z,68.53
2023-02-26T10:07:29.248Z,68.79
2023-02-26T10:10:25.717Z,69.23
2023-02-26T10:13:25.918Z,68.82
2023-02-26T10:16:16.688Z,68.26
2023-02-26T10:19:07.545Z,68.48
2023-02-26T10:21:58.994Z,68.35
2023-02-26T10:24:50.589Z,68.61
2023-02-26T10:27:50.237Z,68.08
2023-02-26T10:30:42.759Z,68.13
2023-02-26T10:33:37.591Z,66.93
2023-02-26T10:36:29.135Z,66.87
2023-02-26T10:39:25.008Z,65.26
2023-02-26T10:42:15.085Z,65.85
2023-02-26T10:45:12.702Z,65.77
2023-02-26T10:48:09.949Z,65.34
2023-02-26T10:51:00.105Z,65.31
2023-02-26T10:53:52.799Z,66.00
2023-02-26T10:56:41.360Z,66.09
2023-02-26T10:59:29.917Z,66.32
2023-02-26T11:02:34.346Z,66.44
2023-02-26T11:05:25.873Z,66.99
2023-02-26T11:08:17.748Z,66.03
2023-02-26T11:11:06.867Z,65.79
2023-02-26T11:13:55.355Z,65.05
2023-02-26T11:16:47.900Z,65.61
2023-02-26T11:19:40.613Z,65.39
2023-02-26T11:22:33.601Z,65.28
2023-02-26T11:25:25.303Z,66.43
2023-02-26T11:28:22.179Z,66.13
2023-02-26T11:31:13.550Z,66.29
2023-02-26T11:34:04.862Z,67.55
2023-02-26T11:36:57.228Z,67.84
2023-02-26T11:39:45.876Z,69.11
2023-02-26T11:42:36.968Z,68.76
2023-02-26T11:45:25.941Z,68.06
2023-02-26T11:48:17.262Z,68.75
2023-02-26T11:51:06.973Z,68.91
2023-02-26T11:54:01.072Z,68.66
2023-02-26T11:56:49.750Z,68.28
2023-02-26T11:59:41.148Z,68.77
2023-02-26T12:02:34.907Z,68.71
2023-02-26T12:05:23.756Z,69.21
2023-02-26T12:08:19.908Z,69.79
2023-02-26T12:11:37.129Z,68.68
2023-02-26T12:14:34.979Z,67.79
2023-02-26T12:17:33.123Z,66.44
2023-02-26T12:20:25.413Z,67.83
2023-02-26T12:23:26.051Z,66.50
2023-02-26T12:26:28.209Z,66.36
2023-02-26T12:29:37.517Z,66.12
2023-02-26T12:32:47.517Z,65.88
2023-02-26T12:35:54.924Z,65.71
2023-02-26T12:38:49.310Z,65.64
2023-02-26T12:41:50.601Z,64.78
2023-02-26T12:44:56.279Z,64.62
2023-02-26T12:47:53.061Z,64.93
2023-02-26T12:50:50.754Z,63.64
2023-02-26T12:53:50.612Z,63.49
2023-02-26T12:57:15.604Z,62.71
2023-02-26T13:00:24.275Z,63.68
2023-02-26T13:04:02.267Z,63.15
2023-02-26T13:07:02.721Z,62.74
2023-02-26T13:10:00.191Z,62.51
2023-02-26T13:12:54.972Z,62.03
2023-02-26T13:16:01.145Z,61.81
2023-02-26T13:18:53.215Z,61.27
2023-02-26T13:21:46.320Z,61.93
2023-02-26T13:24:39.135Z,61.13
2023-02-26T13:27:30.041Z,60.51
2023-02-26T13:30:25.010Z,60.50
2023-02-26T13:33:18.814Z,60.21
2023-02-26T13:36:08.676Z,59.93
2023-02-26T13:39:11.312Z,60.32
2023-02-26T13:42:02.971Z,59.41
2023-02-26T13:44:59.400Z,60.25
2023-02-26T13:48:15.642Z,59.51
2023-02-26T13:51:09.783Z,58.67
2023-02-26T13:54:01.235Z,57.57
2023-02-26T13:56:56.013Z,58.61
2023-02-26T13:59:50.027Z,57.20
2023-02-26T14:02:50.273Z,57.19
2023-02-26T14:05:56.213Z,56.23
2023-02-26T14:08:47.344Z,56.89
2023-02-26T14:11:47.598Z,56.36
2023-02-26T14:14:38.328Z,56.67
2023-02-26T14:17:40.586Z,55.26
2023-02-26T14:20:30.086Z,55.75
2023-02-26T14:23:34.167Z,55.16
2023-02-26T14:26:23.164Z,55.95
2023-02-26T14:29:17.872Z,55.60
2023-02-26T14:32:14.886Z,56.26
2023-02-26T14:35:07.375Z,55.49
2023-02-26T14:37:59.758Z,55.46
2023-02-26T14:40:51.796Z,55.76
2023-02-26T14:43:41.711Z,56.20
2023-02-26T14:46:30.732Z,56.03
2023-02-26T14:49:25.230Z,54.82
2023-02-26T14:52:38.089Z,55.27
2023-02-26T14:55:44.581Z,54.51
2023-02-26T14:58:56.709Z,54.26
2023-02-26T15:01:48.926Z,54.35
2023-02-26T15:04:57.415Z,54.10
2023-02-26T15:07:55.451Z,54.25
2023-02-26T15:10:54.106Z,53.97
2023-02-26T15:14:01.257Z,54.00
2023-02-26T15:16:55.694Z,54.21
2023-02-26T15:19:57.139Z,53.65
2023-02-26T15:22:57.208Z,54.45
2023-02-26T15:25:48.259Z,54.34
2023-02-26T15:28:39.188Z,54.71
2023-02-26T15:31:35.703Z,55.39
2023-02-26T15:34:24.719Z,52.59
2023-02-26T15:37:20.990Z,53.72
2023-02-26T15:40:11.181Z,53.08
2023-02-26T15:43:00.381Z,52.16
2023-02-26T15:45:49.639Z,52.45
2023-02-26T15:48:42.249Z,52.92
2023-02-26T15:51:31.142Z,54.12
2023-02-26T15:54:21.809Z,54.08
2023-02-26T15:57:11.066Z,55.17
2023-02-26T16:00:08.242Z,54.91
2023-02-26T16:02:58.740Z,54.99
2023-02-26T16:05:49.793Z,55.21
2023-02-26T16:08:38.957Z,54.36
2023-02-26T16:11:29.859Z,54.30
2023-02-26T16:14:22.232Z,55.15
2023-02-26T16:17:14.123Z,54.78
2023-02-26T16:20:05.581Z,55.62
2023-02-26T16:22:58.572Z,54.78
2023-02-26T16:25:52.226Z,54.77
2023-02-26T16:28:45.710Z,54.92
2023-02-26T16:31:36.947Z,54.77
2023-02-26T16:34:34.966Z,54.92
2023-02-26T16:37:28.722Z,54.89
2023-02-26T16:40:21.773Z,53.63
2023-02-26T16:43:35.497Z,54.47
2023-02-26T16:46:38.912Z,54.19
2023-02-26T16:49:30.401Z,53.84
2023-02-26T16:52:21.321Z,53.22
2023-02-26T16:55:18.303Z,52.62
2023-02-26T16:58:11.952Z,52.62
2023-02-26T17:01:08.572Z,53.06
2023-02-26T17:04:01.444Z,52.36
2023-02-26T17:06:50.120Z,51.86
2023-02-26T17:09:40.273Z,52.55
2023-02-26T17:12:44.741Z,53.27
2023-02-26T17:15:36.919Z,52.25
2023-02-26T17:18:25.527Z,52.29
2023-02-26T17:21:14.092Z,52.81
2023-02-26T17:24:02.821Z,53.11
2023-02-26T17:26:52.387Z,52.63
2023-02-26T17:29:43.260Z,52.72
2023-02-26T17:32:35.136Z,52.15
2023-02-26T17:35:23.855Z,51.99
2023-02-26T17:38:13.432Z,51.57
2023-02-26T17:41:02.205Z,52.38
2023-02-26T17:43:50.774Z,51.31
2023-02-26T17:46:39.376Z,51.72
2023-02-26T17:49:29.340Z,51.79
2023-02-26T17:52:18.330Z,52.04
2023-02-26T17:55:07.667Z,51.74
2023-02-26T17:57:56.865Z,51.91
2023-02-26T18:00:49.726Z,52.33
2023-02-26T18:03:39.891Z,51.16
2023-02-26T18:06:32.034Z,52.24
2023-02-26T18:09:20.549Z,52.40
2023-02-26T18:12:12.318Z,51.70
2023-02-26T18:15:00.863Z,52.22
2023-02-26T18:17:49.969Z,52.36
2023-02-26T18:20:38.569Z,52.91
2023-02-26T18:23:28.463Z,52.43
2023-02-26T18:26:18.418Z,52.26
2023-02-26T18:29:06.918Z,52.38
2023-02-26T18:31:55.712Z,52.43
2023-02-26T18:34:44.806Z,52.75
2023-02-26T18:37:34.781Z,53.74
2023-02-26T18:40:28.079Z,53.03
2023-02-26T18:43:16.912Z,53.46
2023-02-26T18:46:05.777Z,53.78
2023-02-26T18:48:54.348Z,53.76
2023-02-26T18:51:42.888Z,53.75
2023-02-26T18:54:31.420Z,54.26
2023-02-26T18:57:21.349Z,53.80
2023-02-26T19:00:13.867Z,54.04
2023-02-26T19:03:02.427Z,54.36
2023-02-26T19:05:57.682Z,54.53
2023-02-26T19:08:46.342Z,54.96
2023-02-26T19:11:35.584Z,55.19
2023-02-26T19:14:26.055Z,56.39
2023-02-26T19:17:14.677Z,54.67
2023-02-26T19:20:03.297Z,55.27
2023-02-26T19:22:51.818Z,55.37
2023-02-26T19:25:42.623Z,54.64
2023-02-26T19:28:32.333Z,54.44
2023-02-26T19:31:22.332Z,55.39
2023-02-26T19:34:11.402Z,54.75
2023-02-26T19:37:00.166Z,54.74
2023-02-26T19:39:48.718Z,54.86
2023-02-26T19:42:37.490Z,55.59
2023-02-26T19:45:27.780Z,54.89
2023-02-26T19:48:17.749Z,53.98
2023-02-26T19:51:06.847Z,53.89
2023-02-26T19:53:55.379Z,54.05
2023-02-26T19:56:44.552Z,53.43
2023-02-26T19:59:33.375Z,53.66
2023-02-26T20:02:22.159Z,53.24
2023-02-26T20:05:16.894Z,53.65
2023-02-26T20:08:06.009Z,53.44
2023-02-26T20:10:56.242Z,53.86
2023-02-26T20:13:44.852Z,54.15
2023-02-26T20:16:33.407Z,54.21
2023-02-26T20:19:21.955Z,53.63
2023-02-26T20:22:11.888Z,54.28
2023-02-26T20:25:00.354Z,54.49
2023-02-26T20:27:48.829Z,54.21
2023-02-26T20:30:37.364Z,54.57
2023-02-26T20:33:26.150Z,54.08
2023-02-26T20:36:14.747Z,54.34
2023-02-26T20:39:04.618Z,54.29
2023-02-26T20:41:53.110Z,54.70
2023-02-26T20:44:41.618Z,55.26
2023-02-26T20:47:30.110Z,54.59
2023-02-26T20:50:18.966Z,54.79
2023-02-26T20:53:08.245Z,54.98
2023-02-26T20:55:58.167Z,54.85
2023-02-26T20:58:47.522Z,54.46
2023-02-26T21:01:36.389Z,54.51
2023-02-26T21:04:25.293Z,54.78
2023-02-26T21:07:21.492Z,54.56
2023-02-26T21:10:12.911Z,54.86
2023-02-26T21:13:02.876Z,55.35
2023-02-26T21:15:51.351Z,55.26
2023-02-26T21:18:40.304Z,55.75
2023-02-26T21:21:29.151Z,55.73
2023-02-26T21:24:17.745Z,56.29
2023-02-26T21:27:06.238Z,56.33
2023-02-26T21:29:56.116Z,56.10
2023-02-26T21:32:44.818Z,56.46
2023-02-26T21:35:33.491Z,56.95
2023-02-26T21:38:22.241Z,56.68
2023-02-26T21:41:10.814Z,57.18
2023-02-26T21:43:59.341Z,57.35
2023-02-26T21:46:49.394Z,57.68
2023-02-26T21:49:38.061Z,57.68
2023-02-26T21:52:30.401Z,57.78
2023-02-26T21:55:18.993Z,58.09
2023-02-26T21:58:08.001Z,61.27
2023-02-26T22:00:59.106Z,61.96
2023-02-26T22:03:48.971Z,58.56
2023-02-26T22:06:37.511Z,59.34
2023-02-26T22:09:26.098Z,59.35
2023-02-26T22:12:14.588Z,60.16
2023-02-26T22:15:03.358Z,60.31
2023-02-26T22:17:51.879Z,60.87
2023-02-26T22:20:42.121Z,60.67
2023-02-26T22:23:30.626Z,61.12
2023-02-26T22:26:19.470Z,60.51
2023-02-26T22:29:07.999Z,60.78
2023-02-26T22:31:56.760Z,61.26
2023-02-26T22:34:46.214Z,61.70
2023-02-26T22:37:36.112Z,62.04
2023-02-26T22:40:26.209Z,61.95
2023-02-26T22:43:14.881Z,61.44
2023-02-26T22:46:03.445Z,61.91
2023-02-26T22:48:52.052Z,62.36
2023-02-26T22:51:40.595Z,62.41
2023-02-26T22:54:30.669Z,62.52
2023-02-26T22:57:19.185Z,62.72
2023-02-26T23:00:11.405Z,62.65
2023-02-26T23:03:00.253Z,62.82
2023-02-26T23:05:48.696Z,63.45
2023-02-26T23:08:37.227Z,63.22
2023-02-26T23:11:27.362Z,63.14
2023-02-26T23:14:16.076Z,63.39
2023-02-26T23:17:05.084Z,64.22
2023-02-26T23:19:53.814Z,64.37
2023-02-26T23:22:43.669Z,64.42
2023-02-26T23:25:32.341Z,64.91
2023-02-26T23:28:24.255Z,65.16
2023-02-26T23:31:13.971Z,65.58
2023-02-26T23:34:04.600Z,65.54
2023-02-26T23:36:53.117Z,65.68
2023-02-26T23:39:41.614Z,65.70
2023-02-26T23:42:30.086Z,65.92
2023-02-26T23:45:20.060Z,66.24
2023-02-26T23:48:08.690Z,66.06
2023-02-26T23:50:57.234Z,66.54
2023-02-26T23:53:45.784Z,66.74
2023-02-26T23:56:34.318Z,67.31
2023-02-26T23:59:22.947Z,66.99
